Time;durP1;ratioP1;P1;durP2;ratioP2;P2;SDS_P1;SDS_P2;PMS_P1;PMS_P2;Temp;Humidity;BMP_temperature;BMP_pressure;BME280_temperature;BME280_humidity;BME280_pressure;Samples;Min_cycle;Max_cycle;Signal;HPM_P1;HPM_P2
2022/05/19 00:02:15;;;;;;;8.37;5.77;;;17.00;1.00;;;;;;6173435;28;20247;-54
2022/05/19 00:05:24;;;;;;;6.60;6.10;;;17.00;1.00;;;;;;6191551;28;20298;-55
2022/05/19 00:08:27;;;;;;;5.50;5.30;;;16.90;1.00;;;;;;6188202;28;20322;-55
2022/05/19 00:11:40;;;;;;;5.93;5.73;;;16.90;1.00;;;;;;6178812;28;20240;-53
2022/05/19 00:14:44;;;;;;;5.97;5.57;;;16.80;1.00;;;;;;6182456;28;20236;-54
2022/05/19 00:17:46;;;;;;;6.17;5.87;;;16.80;1.00;;;;;;6182296;28;20335;-54
2022/05/19 00:20:50;;;;;;;6.70;6.20;;;16.80;1.00;;;;;;6163120;28;20248;-54
2022/05/19 00:23:53;;;;;;;6.57;5.97;;;16.80;1.00;;;;;;6163320;28;20244;-55
2022/05/19 00:26:56;;;;;;;7.37;5.63;;;16.80;1.00;;;;;;6161411;28;20364;-54
2022/05/19 00:29:59;;;;;;;5.50;5.30;;;16.80;1.00;;;;;;6164379;28;20252;-55
2022/05/19 00:33:02;;;;;;;6.57;6.17;;;16.70;1.00;;;;;;6167611;28;20289;-54
2022/05/19 00:36:10;;;;;;;6.30;5.90;;;16.70;1.00;;;;;;6187419;28;20529;-55
2022/05/19 00:39:13;;;;;;;6.87;6.30;;;16.60;1.00;;;;;;6185150;28;20232;-54
2022/05/19 00:45:43;;;;;;;6.80;6.20;;;16.60;1.00;;;;;;6164734;28;20320;-55
2022/05/19 00:48:50;;;;;;;6.37;6.07;;;16.60;1.00;;;;;;6160119;28;20252;-54
2022/05/19 00:52:00;;;;;;;6.17;5.83;;;16.50;1.00;;;;;;6161856;28;20345;-55
2022/05/19 00:55:08;;;;;;;6.33;5.93;;;16.50;1.00;;;;;;6162687;28;20375;-55
2022/05/19 00:58:15;;;;;;;6.03;5.63;;;16.40;1.00;;;;;;6160643;28;20759;-55
2022/05/19 01:01:19;;;;;;;5.87;5.60;;;16.40;1.00;;;;;;6170525;28;20240;-54
2022/05/19 01:04:28;;;;;;;6.73;6.23;;;16.40;1.00;;;;;;6187966;28;20227;-53
2022/05/19 01:07:38;;;;;;;6.23;5.73;;;16.40;1.00;;;;;;6190334;28;20240;-54
2022/05/19 01:10:42;;;;;;;5.80;5.40;;;16.30;1.00;;;;;;6182684;28;20244;-54
2022/05/19 01:13:46;;;;;;;6.47;5.87;;;16.20;1.00;;;;;;6178071;28;20232;-53
2022/05/19 01:16:49;;;;;;;6.43;6.07;;;16.20;1.00;;;;;;6183649;28;20914;-56
2022/05/19 01:19:57;;;;;;;5.73;5.53;;;16.20;1.00;;;;;;6184266;28;20236;-55
2022/05/19 01:23:07;;;;;;;5.50;5.30;;;16.20;1.00;;;;;;6185777;28;20402;-54
2022/05/19 01:26:24;;;;;;;5.53;5.20;;;16.10;1.00;;;;;;6184406;28;20724;-55
2022/05/19 01:29:29;;;;;;;7.13;6.60;;;16.10;1.00;;;;;;6161666;28;20241;-55
2022/05/19 01:32:41;;;;;;;6.17;5.77;;;16.10;1.00;;;;;;6160862;28;20237;-54
2022/05/19 01:35:44;;;;;;;6.30;5.80;;;16.10;1.00;;;;;;6199679;28;20696;-54
2022/05/19 01:38:51;;;;;;;6.27;5.80;;;16.00;1.00;;;;;;6192465;28;20327;-55
2022/05/19 01:42:08;;;;;;;5.47;5.27;;;16.00;1.00;;;;;;6183367;28;20616;-55
2022/05/19 01:45:30;;;;;;;6.20;5.90;;;15.90;1.00;;;;;;6181912;28;20291;-55
2022/05/19 01:48:43;;;;;;;5.87;5.60;;;15.90;1.00;;;;;;6158837;28;20287;-54
2022/05/19 01:52:00;;;;;;;5.97;5.47;;;15.90;1.00;;;;;;6167234;28;20232;-54
2022/05/19 01:55:09;;;;;;;6.20;5.90;;;15.90;1.00;;;;;;6164964;28;20303;-55
2022/05/19 01:58:17;;;;;;;6.47;5.90;;;15.80;1.00;;;;;;6159518;28;20822;-53
2022/05/19 02:01:28;;;;;;;5.30;4.90;;;15.80;1.00;;;;;;6163652;28;20238;-54
2022/05/19 02:04:38;;;;;;;6.53;6.13;;;15.80;1.00;;;;;;6179171;28;20235;-53
2022/05/19 02:07:46;;;;;;;6.27;5.73;;;15.70;1.00;;;;;;6208618;28;20250;-54
2022/05/19 02:10:51;;;;;;;5.73;5.33;;;15.70;1.00;;;;;;6182382;28;20236;-53
2022/05/19 02:13:55;;;;;;;6.13;5.50;;;15.60;1.00;;;;;;6184235;28;20232;-53
2022/05/19 02:17:01;;;;;;;6.10;5.70;;;15.60;1.00;;;;;;6170563;28;20681;-55
2022/05/19 02:20:08;;;;;;;5.17;4.87;;;15.60;1.00;;;;;;6199718;28;20700;-53
2022/05/19 02:23:12;;;;;;;5.63;5.30;;;15.60;1.00;;;;;;6183411;28;20792;-55
2022/05/19 02:26:15;;;;;;;6.00;5.67;;;15.40;1.00;;;;;;6182763;28;20267;-54
2022/05/19 02:29:26;;;;;;;5.40;5.20;;;15.50;1.00;;;;;;6182960;28;20378;-55
2022/05/19 02:32:30;;;;;;;6.30;5.77;;;15.50;1.00;;;;;;6181378;28;20239;-55
2022/05/19 02:35:33;;;;;;;5.40;5.17;;;15.50;1.00;;;;;;6182004;28;20375;-53
2022/05/19 02:38:36;;;;;;;5.23;5.03;;;15.40;1.00;;;;;;6179375;28;20267;-55
2022/05/19 02:41:39;;;;;;;5.47;5.20;;;15.40;1.00;;;;;;6183103;28;20311;-54
2022/05/19 02:44:42;;;;;;;5.17;4.97;;;15.40;1.00;;;;;;6184115;28;20516;-55
2022/05/19 02:47:46;;;;;;;5.70;5.27;;;15.30;1.00;;;;;;6179138;28;20342;-54
2022/05/19 02:50:56;;;;;;;5.73;5.33;;;15.30;1.00;;;;;;6159593;28;20461;-55
2022/05/19 02:53:59;;;;;;;5.63;5.43;;;15.30;1.00;;;;;;6160502;28;20316;-54
2022/05/19 02:57:02;;;;;;;5.63;5.23;;;15.30;1.00;;;;;;6158113;28;20619;-55
2022/05/19 03:00:17;;;;;;;5.13;4.93;;;15.20;1.00;;;;;;6159468;28;20272;-54
2022/05/19 03:03:21;;;;;;;5.67;5.20;;;15.20;1.00;;;;;;6168447;28;20239;-54
2022/05/19 03:06:24;;;;;;;5.47;5.17;;;15.10;1.00;;;;;;6187643;28;20737;-54
2022/05/19 03:09:27;;;;;;;5.50;5.20;;;15.10;1.00;;;;;;6189758;28;20636;-55
2022/05/19 03:12:30;;;;;;;5.90;5.40;;;15.10;1.00;;;;;;6175397;28;20282;-55
2022/05/19 03:15:33;;;;;;;5.97;5.67;;;15.10;1.00;;;;;;6176737;28;20497;-54
2022/05/19 03:18:37;;;;;;;5.17;4.97;;;15.10;1.00;;;;;;6156682;28;20249;-54
2022/05/19 03:21:42;;;;;;;5.53;5.33;;;15.00;1.00;;;;;;6157755;28;20355;-55
2022/05/19 03:24:45;;;;;;;5.90;5.60;;;15.10;1.00;;;;;;6159342;28;20304;-55
2022/05/19 03:27:57;;;;;;;5.70;5.30;;;15.10;1.00;;;;;;6157431;28;20240;-54
2022/05/19 03:31:00;;;;;;;5.40;5.20;;;15.00;1.00;;;;;;6159760;28;20241;-55
2022/05/19 03:34:04;;;;;;;5.40;5.10;;;15.00;1.00;;;;;;6157365;28;20685;-54
2022/05/19 03:37:07;;;;;;;5.40;5.00;;;15.00;1.00;;;;;;6179289;28;20240;-55
2022/05/19 03:40:12;;;;;;;5.80;5.40;;;15.00;1.00;;;;;;6193180;28;20313;-55
2022/05/19 03:43:14;;;;;;;5.20;5.00;;;15.00;1.00;;;;;;6163788;28;20380;-54
2022/05/19 03:46:17;;;;;;;5.87;5.57;;;15.00;1.00;;;;;;6158245;28;20463;-54
2022/05/19 03:49:21;;;;;;;6.57;5.80;;;15.00;1.00;;;;;;6162452;28;20240;-55
2022/05/19 03:52:24;;;;;;;5.77;5.27;;;15.00;1.00;;;;;;6182982;28;20623;-54
2022/05/19 03:55:27;;;;;;;6.00;5.60;;;15.00;1.00;;;;;;6188694;28;20494;-55
2022/05/19 03:58:30;;;;;;;8.40;5.60;;;15.00;1.00;;;;;;6177135;28;20760;-55
2022/05/19 04:01:33;;;;;;;5.83;5.40;;;15.00;1.00;;;;;;6166993;28;20233;-55
2022/05/19 04:04:37;;;;;;;6.20;5.80;;;15.00;1.00;;;;;;6197479;28;20247;-54
2022/05/19 04:07:40;;;;;;;5.33;5.03;;;15.00;1.00;;;;;;6165825;28;20781;-53
2022/05/19 04:10:47;;;;;;;5.47;5.13;;;15.10;1.00;;;;;;6180120;28;20239;-50
2022/05/19 04:13:49;;;;;;;5.40;5.10;;;15.10;1.00;;;;;;6187458;28;20467;-54
2022/05/19 04:16:58;;;;;;;5.63;5.33;;;15.10;1.00;;;;;;6182797;28;20264;-53
2022/05/19 04:20:03;;;;;;;6.20;5.60;;;15.20;1.00;;;;;;6163225;28;20232;-55
2022/05/19 04:23:06;;;;;;;6.13;5.60;;;15.20;1.00;;;;;;6162265;28;20237;-53
2022/05/19 04:26:09;;;;;;;6.03;5.50;;;15.30;1.00;;;;;;6161989;28;20616;-53
2022/05/19 04:29:12;;;;;;;5.50;5.10;;;15.30;1.00;;;;;;6161738;28;20243;-55
2022/05/19 04:32:15;;;;;;;6.60;6.17;;;15.30;1.00;;;;;;6156304;28;20319;-55
2022/05/19 04:35:20;;;;;;;5.50;5.00;;;15.30;1.00;;;;;;6193936;28;20327;-55
2022/05/19 04:38:23;;;;;;;5.77;5.37;;;15.30;1.00;;;;;;6195673;28;20246;-55
2022/05/19 04:41:26;;;;;;;5.53;5.23;;;15.30;1.00;;;;;;6186205;28;20818;-55
2022/05/19 04:44:29;;;;;;;5.30;5.10;;;15.40;1.00;;;;;;6187190;28;20685;-54
2022/05/19 04:47:32;;;;;;;5.90;5.33;;;15.50;1.00;;;;;;6184511;28;20251;-55
2022/05/19 04:50:36;;;;;;;6.40;5.80;;;15.50;1.00;;;;;;6185253;28;20232;-54
2022/05/19 04:53:38;;;;;;;6.27;5.70;;;15.60;1.00;;;;;;6184987;28;20297;-54
2022/05/19 04:56:42;;;;;;;6.27;5.87;;;15.70;1.00;;;;;;6181222;28;20256;-55
2022/05/19 04:59:44;;;;;;;5.60;5.20;;;15.80;1.00;;;;;;6206248;28;20791;-55
2022/05/19 05:02:47;;;;;;;5.73;5.33;;;16.00;1.00;;;;;;6157070;28;20244;-55
2022/05/19 05:05:52;;;;;;;7.10;5.17;;;16.30;1.00;;;;;;6197778;28;20320;-54
2022/05/19 05:08:55;;;;;;;6.03;5.57;;;16.60;1.00;;;;;;6202227;28;20489;-54
2022/05/19 05:11:58;;;;;;;5.70;5.20;;;16.90;1.00;;;;;;6184218;28;20804;-55
2022/05/19 05:15:01;;;;;;;6.80;5.43;;;17.20;1.00;;;;;;6180610;28;20378;-54
2022/05/19 05:18:05;;;;;;;6.60;5.53;;;17.50;1.00;;;;;;6181261;28;20662;-55
2022/05/19 05:21:13;;;;;;;5.90;5.13;;;17.80;1.00;;;;;;6189770;28;20278;-55
2022/05/19 05:24:16;;;;;;;7.70;5.63;;;18.10;1.00;;;;;;6185226;28;20236;-56
2022/05/19 05:27:18;;;;;;;6.37;5.50;;;18.40;1.00;;;;;;6185584;28;20319;-55
2022/05/19 05:30:21;;;;;;;6.93;4.90;;;18.60;1.00;;;;;;6158551;28;20778;-55
2022/05/19 05:33:43;;;;;;;7.03;4.90;;;19.00;1.00;;;;;;6184030;28;20231;-55
2022/05/19 05:36:47;;;;;;;15.93;5.40;;;19.20;1.00;;;;;;6189894;28;20244;-55
2022/05/19 05:39:50;;;;;;;8.50;5.87;;;19.40;1.00;;;;;;6191980;28;20374;-55
2022/05/19 05:42:53;;;;;;;5.23;4.83;;;19.60;1.00;;;;;;6183964;28;20248;-55
2022/05/19 05:46:05;;;;;;;7.50;5.30;;;19.80;1.00;;;;;;6188259;28;20243;-55
2022/05/19 05:49:14;;;;;;;5.43;5.10;;;19.90;1.00;;;;;;6186133;28;20242;-54
2022/05/19 05:52:23;;;;;;;5.63;5.13;;;19.80;1.00;;;;;;6184028;28;20279;-55
2022/05/19 05:55:26;;;;;;;4.93;4.60;;;19.70;1.00;;;;;;6185260;28;20232;-56
2022/05/19 05:58:29;;;;;;;4.90;4.70;;;19.60;1.00;;;;;;6180849;28;20246;-54
2022/05/19 06:01:31;;;;;;;5.43;5.00;;;19.70;1.00;;;;;;6183452;28;20812;-54
2022/05/19 06:04:34;;;;;;;5.50;5.17;;;19.80;1.00;;;;;;6189865;28;20244;-55
2022/05/19 06:07:38;;;;;;;8.57;5.20;;;19.90;1.00;;;;;;6189083;28;20244;-56
2022/05/19 06:10:41;;;;;;;6.90;5.67;;;20.10;1.00;;;;;;6189835;28;20660;-53
2022/05/19 06:13:44;;;;;;;5.33;4.93;;;20.00;1.00;;;;;;6187621;28;20227;-54
2022/05/19 06:16:47;;;;;;;5.90;5.60;;;19.90;1.00;;;;;;6188289;28;20294;-55
2022/05/19 06:19:51;;;;;;;8.23;5.23;;;20.00;1.00;;;;;;6185176;28;20812;-55
2022/05/19 06:22:59;;;;;;;5.33;5.03;;;20.10;1.00;;;;;;6190807;28;20278;-56
2022/05/19 06:26:02;;;;;;;7.83;5.30;;;20.40;1.00;;;;;;6179155;28;20243;-54
2022/05/19 06:29:05;;;;;;;5.07;4.80;;;20.60;1.00;;;;;;6191620;28;20255;-55
2022/05/19 06:32:10;;;;;;;6.17;5.57;;;20.70;1.00;;;;;;6192982;28;20359;-54
2022/05/19 06:35:16;;;;;;;5.50;5.20;;;20.90;1.00;;;;;;6181389;28;20232;-55
2022/05/19 06:38:19;;;;;;;8.03;5.80;;;21.00;1.00;;;;;;6183778;28;20479;-55
2022/05/19 06:44:44;;;;;;;5.93;5.43;;;21.10;1.00;;;;;;6157998;28;20283;-50
2022/05/19 06:47:48;;;;;;;10.40;5.40;;;21.20;1.00;;;;;;6187265;28;20239;-55
2022/05/19 06:51:01;;;;;;;7.40;5.53;;;21.40;1.00;;;;;;6186479;28;20265;-56
2022/05/19 06:54:26;;;;;;;6.00;5.50;;;21.60;1.00;;;;;;6187552;28;20234;-54
2022/05/19 06:57:31;;;;;;;5.80;5.27;;;21.80;1.00;;;;;;6187908;28;20865;-54
2022/05/19 07:00:35;;;;;;;7.37;5.83;;;21.90;1.00;;;;;;6185058;28;20236;-55
2022/05/19 07:03:39;;;;;;;6.03;5.50;;;21.80;1.00;;;;;;6177583;28;20259;-55
2022/05/19 07:06:42;;;;;;;6.03;5.53;;;21.60;1.00;;;;;;6183559;28;20331;-55
2022/05/19 07:09:46;;;;;;;7.80;6.37;;;21.80;1.00;;;;;;6178011;28;20240;-54
2022/05/19 07:12:52;;;;;;;5.87;5.40;;;22.00;1.00;;;;;;6183442;28;20244;-55
2022/05/19 07:15:57;;;;;;;6.47;5.70;;;22.20;1.00;;;;;;6189921;28;20283;-54
2022/05/19 07:22:25;;;;;;;6.43;5.93;;;22.20;1.00;;;;;;6190167;28;20932;-55
2022/05/19 07:25:29;;;;;;;7.70;6.03;;;22.20;1.00;;;;;;6194034;28;20327;-54
2022/05/19 07:28:31;;;;;;;6.50;5.90;;;22.20;1.00;;;;;;6189857;28;20721;-54
2022/05/19 07:31:35;;;;;;;5.60;5.10;;;22.30;1.00;;;;;;6187434;28;20236;-55
2022/05/19 07:34:39;;;;;;;6.53;5.80;;;22.50;1.00;;;;;;6193629;28;20347;-56
2022/05/19 07:37:42;;;;;;;9.57;5.20;;;22.60;1.00;;;;;;6189867;28;20301;-55
2022/05/19 07:40:47;;;;;;;6.13;5.67;;;22.60;1.00;;;;;;6182762;28;20724;-54
2022/05/19 07:43:52;;;;;;;6.97;6.33;;;22.70;1.00;;;;;;6183161;28;20794;-55
2022/05/19 07:46:54;;;;;;;5.47;5.17;;;22.80;1.00;;;;;;6180535;28;20246;-54
2022/05/19 07:49:57;;;;;;;6.73;5.97;;;22.80;1.00;;;;;;6186591;28;20437;-56
2022/05/19 07:53:15;;;;;;;5.70;5.40;;;22.70;1.00;;;;;;6173673;28;20229;-56
2022/05/19 07:56:19;;;;;;;5.93;5.60;;;22.80;1.00;;;;;;6169840;28;20391;-55
2022/05/19 07:59:25;;;;;;;5.87;5.57;;;22.80;1.00;;;;;;6158116;28;20560;-54
2022/05/19 08:02:32;;;;;;;5.60;5.10;;;22.90;1.00;;;;;;6159341;28;20291;-55
2022/05/19 08:05:35;;;;;;;5.73;5.33;;;23.00;1.00;;;;;;6191273;28;20239;-55
2022/05/19 08:08:39;;;;;;;6.93;6.37;;;22.90;1.00;;;;;;6195284;28;20651;-55
2022/05/19 08:11:43;;;;;;;5.80;5.47;;;23.10;1.00;;;;;;6183006;28;20239;-54
2022/05/19 08:18:11;;;;;;;9.33;6.10;;;23.20;1.00;;;;;;6186616;28;20236;-55
2022/05/19 08:21:16;;;;;;;6.37;5.67;;;23.20;1.00;;;;;;6182332;28;20239;-54
2022/05/19 08:24:19;;;;;;;6.30;5.90;;;23.20;1.00;;;;;;6165358;28;20353;-55
2022/05/19 08:27:23;;;;;;;6.60;6.03;;;23.40;1.00;;;;;;6178297;28;20252;-54
2022/05/19 08:30:27;;;;;;;6.10;5.77;;;23.40;1.00;;;;;;6176623;28;21203;-55
2022/05/19 08:33:30;;;;;;;6.57;6.17;;;23.50;1.00;;;;;;6181588;28;20228;-55
2022/05/19 08:36:33;;;;;;;7.00;6.13;;;23.50;1.00;;;;;;6188351;28;20752;-53
2022/05/19 08:39:36;;;;;;;5.70;5.20;;;23.70;1.00;;;;;;6193474;28;20980;-54
2022/05/19 08:42:46;;;;;;;5.80;5.37;;;23.70;1.00;;;;;;6187314;28;20236;-55
2022/05/19 08:45:53;;;;;;;10.30;5.73;;;23.90;1.00;;;;;;6186844;28;20935;-54
2022/05/19 08:49:00;;;;;;;7.13;6.57;;;24.20;1.00;;;;;;6188184;28;20775;-55
2022/05/19 08:52:06;;;;;;;8.27;6.10;;;24.30;1.00;;;;;;6184743;28;20259;-54
2022/05/19 08:55:13;;;;;;;5.90;5.50;;;24.30;1.00;;;;;;6193085;28;20241;-55
2022/05/19 08:58:34;;;;;;;9.17;5.53;;;24.40;1.00;;;;;;6183703;28;20725;-55
2022/05/19 09:01:43;;;;;;;5.60;5.20;;;24.50;1.00;;;;;;6187528;28;20347;-56
2022/05/19 09:05:00;;;;;;;6.57;5.90;;;24.60;1.00;;;;;;6186993;28;20327;-56
2022/05/19 09:08:13;;;;;;;6.57;5.27;;;24.80;1.00;;;;;;6190233;28;20350;-55
2022/05/19 09:11:19;;;;;;;6.10;5.37;;;25.00;1.00;;;;;;6186390;28;20434;-55
2022/05/19 09:14:25;;;;;;;5.60;5.17;;;25.10;1.00;;;;;;6182246;28;20318;-54
2022/05/19 09:17:33;;;;;;;6.20;4.57;;;25.40;1.00;;;;;;6182512;28;20314;-55
2022/05/19 09:20:46;;;;;;;5.47;5.10;;;25.50;1.00;;;;;;6185027;28;20247;-55
2022/05/19 09:23:48;;;;;;;5.73;5.30;;;25.60;1.00;;;;;;6191588;28;20240;-55
2022/05/19 09:26:53;;;;;;;6.77;5.50;;;25.80;1.00;;;;;;6188351;28;20598;-54
2022/05/19 09:29:58;;;;;;;4.93;4.73;;;25.90;1.00;;;;;;6189682;28;20715;-56
2022/05/19 09:33:06;;;;;;;5.57;5.17;;;25.90;1.00;;;;;;6162834;28;20745;-55
2022/05/19 09:36:13;;;;;;;9.57;4.73;;;25.90;1.00;;;;;;6180610;28;20446;-54
2022/05/19 09:39:18;;;;;;;6.00;4.40;;;26.00;1.00;;;;;;6153425;28;20253;-54
2022/05/19 09:42:24;;;;;;;11.10;5.17;;;26.00;1.00;;;;;;6189632;28;20281;-53
2022/05/19 09:45:29;;;;;;;5.53;5.33;;;26.20;1.00;;;;;;6191814;28;20256;-54
2022/05/19 09:48:35;;;;;;;5.27;4.90;;;26.20;1.00;;;;;;6184737;28;20388;-55
2022/05/19 09:51:43;;;;;;;5.43;5.13;;;26.30;1.00;;;;;;6184288;28;20318;-55
2022/05/19 09:54:53;;;;;;;5.03;4.73;;;26.40;1.00;;;;;;6189286;28;20317;-55
2022/05/19 09:57:58;;;;;;;5.17;4.87;;;26.40;1.00;;;;;;6177795;28;20248;-54
2022/05/19 10:01:06;;;;;;;5.40;4.90;;;26.40;1.00;;;;;;6183179;28;20315;-54
2022/05/19 10:04:19;;;;;;;5.13;4.73;;;26.40;1.00;;;;;;6165962;28;20307;-55
2022/05/19 10:07:24;;;;;;;5.03;4.70;;;26.50;1.00;;;;;;6187066;28;20722;-54
2022/05/19 10:10:30;;;;;;;5.17;4.87;;;26.60;1.00;;;;;;6185209;28;20279;-55
2022/05/19 10:13:39;;;;;;;9.47;4.60;;;26.80;1.00;;;;;;6186460;28;20286;-57
2022/05/19 10:16:54;;;;;;;8.13;4.90;;;26.90;1.00;;;;;;6189167;28;20405;-55
2022/05/19 10:20:06;;;;;;;5.30;5.00;;;27.10;1.00;;;;;;6178649;28;20224;-56
2022/05/19 10:23:20;;;;;;;4.83;4.60;;;27.10;1.00;;;;;;6177911;28;20240;-54
2022/05/19 10:26:36;;;;;;;5.73;5.10;;;27.20;1.00;;;;;;6187016;28;20964;-54
2022/05/19 10:33:23;;;;;;;6.03;4.90;;;27.40;1.00;;;;;;6181091;28;20771;-54
2022/05/19 10:36:35;;;;;;;5.63;5.23;;;27.40;1.00;;;;;;6191659;28;20242;-53
2022/05/19 10:39:55;;;;;;;5.07;4.57;;;27.40;1.00;;;;;;6183477;28;20636;-54
2022/05/19 10:43:10;;;;;;;7.63;7.10;;;27.40;1.00;;;;;;6183429;28;20232;-54
2022/05/19 10:46:15;;;;;;;5.20;4.87;;;27.60;1.00;;;;;;6167285;28;20240;-54
2022/05/19 10:49:47;;;;;;;5.90;5.47;;;27.80;1.00;;;;;;6175522;28;20379;-56
2022/05/19 10:53:13;;;;;;;4.93;4.50;;;27.80;1.00;;;;;;6181448;28;20233;-56
2022/05/19 10:56:32;;;;;;;5.27;4.83;;;27.70;1.00;;;;;;6178658;28;20232;-54
2022/05/19 10:59:48;;;;;;;4.83;4.53;;;27.90;1.00;;;;;;6177153;28;20517;-54
2022/05/19 11:03:23;;;;;;;5.63;4.87;;;28.00;1.00;;;;;;6179808;28;20850;-54
2022/05/19 11:06:45;;;;;;;4.37;4.17;;;28.10;1.00;;;;;;6175071;28;20327;-53
2022/05/19 11:09:57;;;;;;;5.23;4.97;;;28.10;1.00;;;;;;6181915;28;20236;-53
2022/05/19 11:13:16;;;;;;;6.07;4.77;;;27.90;1.00;;;;;;6180244;28;20276;-55
2022/05/19 11:16:27;;;;;;;5.50;5.00;;;27.90;1.00;;;;;;6164990;28;20784;-52
2022/05/19 11:19:33;;;;;;;4.93;4.10;;;28.00;1.00;;;;;;6179698;28;20232;-54
2022/05/19 11:22:54;;;;;;;5.40;4.90;;;28.20;1.00;;;;;;6161974;28;20298;-54
2022/05/19 11:29:33;;;;;;;4.53;4.17;;;28.50;1.00;;;;;;6188585;28;20270;-56
2022/05/19 11:32:37;;;;;;;4.70;4.40;;;28.50;1.00;;;;;;6181727;28;20330;-55
2022/05/19 11:35:42;;;;;;;6.30;4.23;;;28.60;1.00;;;;;;6192730;28;20782;-53
2022/05/19 11:38:53;;;;;;;4.13;3.83;;;28.70;1.00;;;;;;6186008;28;20244;-55
2022/05/19 11:42:01;;;;;;;5.67;4.40;;;28.60;1.00;;;;;;6182629;28;20367;-55
2022/05/19 11:45:08;;;;;;;7.80;4.20;;;28.50;1.00;;;;;;6177886;28;20270;-55
2022/05/19 11:55:23;;;;;;;4.13;3.80;;;28.60;1.00;;;;;;6121826;28;20380;-54
2022/05/19 11:58:28;;;;;;;5.40;4.63;;;28.60;1.00;;;;;;6158437;28;20339;-55
2022/05/19 12:01:37;;;;;;;4.30;4.10;;;28.60;1.00;;;;;;6159307;28;20237;-54
2022/05/19 12:04:41;;;;;;;7.43;4.47;;;28.50;1.00;;;;;;6186054;28;20240;-54
2022/05/19 12:07:51;;;;;;;5.17;4.67;;;28.60;1.00;;;;;;6204656;28;20247;-54
2022/05/19 12:11:12;;;;;;;4.77;4.40;;;28.80;1.00;;;;;;6184477;28;20235;-55
2022/05/19 12:14:20;;;;;;;4.40;4.00;;;28.70;1.00;;;;;;6173229;28;20235;-55
2022/05/19 12:17:33;;;;;;;4.33;4.10;;;28.70;1.00;;;;;;6184768;28;20259;-55
2022/05/19 12:20:53;;;;;;;4.53;4.33;;;28.70;1.00;;;;;;6187014;28;20901;-55
2022/05/19 12:23:57;;;;;;;3.90;3.70;;;28.50;1.00;;;;;;6187377;28;20279;-55
2022/05/19 12:27:10;;;;;;;4.43;4.13;;;28.40;1.00;;;;;;6203528;28;20247;-53
2022/05/19 12:33:36;;;;;;;5.13;4.67;;;28.50;1.00;;;;;;6176889;28;20314;-54
2022/05/19 12:36:43;;;;;;;4.57;4.17;;;28.40;1.00;;;;;;6203387;28;20243;-55
2022/05/19 12:39:48;;;;;;;4.23;4.10;;;28.40;1.00;;;;;;6190386;28;20247;-55
2022/05/19 12:43:16;;;;;;;4.43;4.23;;;28.40;1.00;;;;;;6162163;28;20244;-55
2022/05/19 12:46:45;;;;;;;4.50;4.07;;;28.50;1.00;;;;;;6165654;28;20239;-53
2022/05/19 12:50:21;;;;;;;4.07;3.97;;;28.50;1.00;;;;;;6184116;28;20327;-54
2022/05/19 12:53:41;;;;;;;4.30;3.87;;;28.70;1.00;;;;;;6186669;28;20259;-54
2022/05/19 12:57:00;;;;;;;8.10;3.97;;;28.50;1.00;;;;;;6170967;28;20690;-56
2022/05/19 13:00:10;;;;;;;4.07;3.73;;;28.50;1.00;;;;;;6162658;28;20461;-54
2022/05/19 13:03:16;;;;;;;4.00;3.80;;;28.50;1.00;;;;;;6172966;28;20247;-54
2022/05/19 13:06:22;;;;;;;4.13;3.90;;;28.40;1.00;;;;;;6202581;28;20278;-55
2022/05/19 13:09:29;;;;;;;3.90;3.70;;;28.50;1.00;;;;;;6198870;28;20370;-55
2022/05/19 13:12:44;;;;;;;4.67;4.27;;;28.50;1.00;;;;;;6173748;28;20359;-55
2022/05/19 13:15:53;;;;;;;3.90;3.60;;;28.50;1.00;;;;;;6178295;28;21176;-54
2022/05/19 13:19:00;;;;;;;3.47;3.30;;;28.70;1.00;;;;;;6179329;28;20307;-54
2022/05/19 13:22:07;;;;;;;3.30;3.23;;;28.90;1.00;;;;;;6182918;28;20314;-55
2022/05/19 13:25:13;;;;;;;4.15;4.05;;;29.00;1.00;;;;;;6182746;28;20338;-54
2022/05/19 13:31:53;;;;;;;3.50;3.30;;;29.10;1.00;;;;;;6184770;28;20220;-56
2022/05/19 13:34:56;;;;;;;3.90;3.70;;;29.10;1.00;;;;;;6188221;28;20801;-55
2022/05/19 13:38:00;;;;;;;3.97;3.60;;;29.10;1.00;;;;;;6183064;28;20733;-54
2022/05/19 13:41:05;;;;;;;4.30;4.10;;;29.10;1.00;;;;;;6185027;28;20622;-54
2022/05/19 13:44:10;;;;;;;4.57;4.15;;;29.00;1.00;;;;;;6184084;28;20231;-55
2022/05/19 13:47:19;;;;;;;4.37;3.90;;;29.00;1.00;;;;;;6180731;28;20963;-54
2022/05/19 13:50:25;;;;;;;4.38;4.07;;;29.10;1.00;;;;;;6185384;28;20890;-53
2022/05/19 13:53:31;;;;;;;3.40;3.20;;;29.00;1.00;;;;;;6182934;28;20224;-54
2022/05/19 13:56:39;;;;;;;3.93;3.70;;;29.00;1.00;;;;;;6183742;28;20315;-54
2022/05/19 13:59:42;;;;;;;4.50;3.23;;;28.90;1.00;;;;;;6183447;28;20376;-54
2022/05/19 14:02:47;;;;;;;3.83;3.73;;;28.90;1.00;;;;;;6178504;28;20240;-53
2022/05/19 14:05:53;;;;;;;5.40;3.47;;;28.90;1.00;;;;;;6187154;28;20228;-55
2022/05/19 14:08:57;;;;;;;3.80;3.50;;;29.10;1.00;;;;;;6183845;28;20239;-54
2022/05/19 14:12:20;;;;;;;4.65;4.43;;;29.10;1.00;;;;;;6168088;28;20306;-53
2022/05/19 14:15:29;;;;;;;4.28;3.97;;;29.30;1.00;;;;;;6178780;28;20375;-54
2022/05/19 14:18:38;;;;;;;4.43;4.22;;;29.30;1.00;;;;;;6170656;28;20284;-54
2022/05/19 14:21:41;;;;;;;5.25;3.55;;;29.30;1.00;;;;;;6161710;28;20311;-54
2022/05/19 14:24:46;;;;;;;4.10;3.85;;;29.10;1.00;;;;;;6161383;28;20264;-54
2022/05/19 14:28:01;;;;;;;3.35;3.20;;;29.20;1.00;;;;;;6179217;28;20283;-53
2022/05/19 14:31:11;;;;;;;3.95;3.63;;;29.30;1.00;;;;;;6185337;28;20698;-54
2022/05/19 14:34:26;;;;;;;4.32;3.90;;;29.40;1.00;;;;;;6183086;28;20732;-54
2022/05/19 14:37:32;;;;;;;3.97;3.67;;;29.50;1.00;;;;;;6186983;28;20232;-54
2022/05/19 14:44:04;;;;;;;4.22;3.97;;;29.70;1.00;;;;;;6176117;28;21046;-55
2022/05/19 14:47:14;;;;;;;3.50;3.33;;;29.70;1.00;;;;;;6159977;28;20244;-55
2022/05/19 14:50:24;;;;;;;4.22;3.88;;;29.60;1.00;;;;;;6178030;28;20240;-54
2022/05/19 14:53:28;;;;;;;4.18;4.07;;;29.60;1.00;;;;;;6178131;28;20237;-54
2022/05/19 14:56:40;;;;;;;4.28;3.95;;;29.60;1.00;;;;;;6160720;28;20236;-57
2022/05/19 14:59:53;;;;;;;4.28;4.07;;;29.50;1.00;;;;;;6160024;28;20367;-55
2022/05/19 15:02:56;;;;;;;4.65;4.25;;;29.40;1.00;;;;;;6180035;28;20260;-55
2022/05/19 15:06:04;;;;;;;4.68;4.38;;;29.30;1.00;;;;;;6200460;28;20266;-55
2022/05/19 15:09:07;;;;;;;9.27;4.00;;;29.30;1.00;;;;;;6192083;28;20237;-54
2022/05/19 15:12:10;;;;;;;5.75;5.15;;;29.20;1.00;;;;;;6183769;28;20816;-54
2022/05/19 15:15:14;;;;;;;5.00;4.60;;;29.10;1.00;;;;;;6183486;28;20322;-54
2022/05/19 15:18:18;;;;;;;4.60;4.30;;;29.10;1.00;;;;;;6171267;28;20237;-54
2022/05/19 15:21:22;;;;;;;4.50;4.32;;;29.10;1.00;;;;;;6160144;28;20362;-54
2022/05/19 15:24:26;;;;;;;4.07;3.88;;;29.00;1.00;;;;;;6159822;28;20291;-54
2022/05/19 15:27:31;;;;;;;4.65;4.45;;;29.00;1.00;;;;;;6190023;28;20236;-55
2022/05/19 15:30:35;;;;;;;4.30;4.00;;;29.00;1.00;;;;;;6183554;28;20310;-58
2022/05/19 15:33:39;;;;;;;4.95;4.18;;;28.90;1.00;;;;;;6186305;28;20385;-55
2022/05/19 15:36:44;;;;;;;4.97;4.60;;;28.90;1.00;;;;;;6185335;28;20641;-52
2022/05/19 15:39:47;;;;;;;7.22;4.10;;;28.90;1.00;;;;;;6190488;28;20928;-55
2022/05/19 15:42:50;;;;;;;4.30;3.70;;;29.00;1.00;;;;;;6182679;28;20713;-54
2022/05/19 15:45:57;;;;;;;4.70;4.30;;;29.00;1.00;;;;;;6171714;28;20233;-53
2022/05/19 15:49:00;;;;;;;4.82;4.40;;;29.10;1.00;;;;;;6156584;28;20256;-54
2022/05/19 15:52:08;;;;;;;4.30;3.90;;;29.00;1.00;;;;;;6159178;28;20883;-54
2022/05/19 15:55:12;;;;;;;4.17;3.87;;;28.90;1.00;;;;;;6173636;28;20244;-53
2022/05/19 15:58:16;;;;;;;4.77;4.47;;;28.60;1.00;;;;;;6182186;28;20314;-53
2022/05/19 16:01:18;;;;;;;4.03;3.83;;;28.60;1.00;;;;;;6183714;28;20315;-53
2022/05/19 16:04:21;;;;;;;4.67;4.30;;;28.60;1.00;;;;;;6187653;28;20231;-54
2022/05/19 16:07:25;;;;;;;4.87;4.43;;;28.70;1.00;;;;;;6201006;28;20249;-54
2022/05/19 16:10:29;;;;;;;4.93;4.43;;;28.60;1.00;;;;;;6187810;28;20259;-54
2022/05/19 16:13:35;;;;;;;4.60;4.17;;;28.50;1.00;;;;;;6174847;28;20234;-54
2022/05/19 16:16:37;;;;;;;4.23;4.03;;;28.30;1.00;;;;;;6182430;28;20246;-55
2022/05/19 16:19:40;;;;;;;4.50;4.20;;;28.30;1.00;;;;;;6180569;28;20261;-54
2022/05/19 16:22:48;;;;;;;4.50;4.07;;;28.30;1.00;;;;;;6164794;28;20236;-54
2022/05/19 16:25:51;;;;;;;5.77;3.87;;;28.40;1.00;;;;;;6173949;28;20235;-54
2022/05/19 16:28:55;;;;;;;4.70;4.07;;;28.40;1.00;;;;;;6205287;28;20253;-54
2022/05/19 16:31:58;;;;;;;4.23;3.80;;;28.50;1.00;;;;;;6172646;28;20256;-55
2022/05/19 16:35:00;;;;;;;4.27;3.87;;;28.50;1.00;;;;;;6189718;28;20232;-55
2022/05/19 16:38:07;;;;;;;3.97;3.73;;;28.60;1.00;;;;;;6206208;28;20863;-55
2022/05/19 16:41:10;;;;;;;4.10;3.47;;;28.50;1.00;;;;;;6166952;28;20267;-55
2022/05/19 16:44:13;;;;;;;3.70;3.40;;;28.40;1.00;;;;;;6188561;28;20235;-53
2022/05/19 16:47:16;;;;;;;3.97;3.83;;;28.30;1.00;;;;;;6177440;28;20431;-54
2022/05/19 16:50:19;;;;;;;4.23;4.00;;;28.20;1.00;;;;;;6174002;28;20318;-54
2022/05/19 16:53:24;;;;;;;4.63;4.30;;;27.90;1.00;;;;;;6183101;28;20242;-53
2022/05/19 16:59:50;;;;;;;3.80;3.40;;;27.60;1.00;;;;;;6186150;28;20236;-56
2022/05/19 17:02:52;;;;;;;4.60;4.20;;;27.50;1.00;;;;;;6188875;28;20327;-54
2022/05/19 17:05:58;;;;;;;6.20;3.37;;;27.50;1.00;;;;;;6182687;28;20374;-54
2022/05/19 17:09:03;;;;;;;4.00;3.63;;;27.40;1.00;;;;;;6191855;28;20271;-55